H160 CYVR-CYCD
Flight info
| Callsign | H160 |
|---|---|
| Flight time | N/A |
| Altitude | 7000 |
| Route | CYWH 482627N1232321W/N0174F060 482703N1232454W 482724N1232615W 482748N1232724W 482718N1232824W 482645N1232903W 482638N1233112W 482644N1233215W 482715N1233309W 482733N1233354W 483035N1233336W 483229N1233402W/N0176F070 483433N1233256W/N0174F060 483644N1233157W 483918N1233335W 484709N1234304W 484825N1234510W 484745N1234902W 484746N1235348W 484825N1235743W 484921N1235945W 484958N1240144W 485119N1240712W DCT 485127N1240808W |
| Aircraft | H160/L-SBDGRY/S |
Departure
| Time | 2026-05-05 15:37 |
|---|---|
| Airport | Vancouver International Airport (CYVR) |
Arrival
| Time | N/A |
|---|---|
| Airport | Nanaimo Airport (CYCD) |
| Time | Latitude | Longitude | Altitude | Speed | Heading |
|---|---|---|---|---|---|
| 2026-05-05 15:29 | 49.18012 | -123.17155 | 22 ft | 0 kts | 131° |
| 2026-05-05 15:35 | 49.18012 | -123.17153 | 23 ft | 1 kts | 120° |
| 2026-05-05 15:35 | 49.17979 | -123.17146 | 165 ft | 24 kts | 136° |
| 2026-05-05 15:35 | 49.17709 | -123.17023 | 261 ft | 63 kts | 169° |
| 2026-05-05 15:35 | 49.17291 | -123.17584 | 377 ft | 91 kts | 229° |
| 2026-05-05 15:36 | 49.16945 | -123.18471 | 509 ft | 93 kts | 236° |
| 2026-05-05 15:36 | 49.16617 | -123.19533 | 564 ft | 104 kts | 248° |
| 2026-05-05 15:36 | 49.16455 | -123.20445 | 542 ft | 88 kts | 256° |
| 2026-05-05 15:36 | 49.16357 | -123.21468 | 592 ft | 73 kts | 219° |
| 2026-05-05 15:37 | 49.15994 | -123.21572 | 560 ft | 60 kts | 171° |
| 2026-05-05 15:37 | 49.15326 | -123.21697 | 534 ft | 107 kts | 182° |
| 2026-05-05 15:37 | 49.14603 | -123.22008 | 565 ft | 101 kts | 192° |
| 2026-05-05 15:37 | 49.13981 | -123.22376 | 712 ft | 102 kts | 202° |
| 2026-05-05 15:38 | 49.13311 | -123.22956 | 688 ft | 120 kts | 206° |
| 2026-05-05 15:38 | 49.12501 | -123.23233 | 685 ft | 128 kts | 173° |
| 2026-05-05 15:38 | 49.11636 | -123.22904 | 726 ft | 123 kts | 163° |
| 2026-05-05 15:38 | 49.10795 | -123.22555 | 710 ft | 127 kts | 167° |
| 2026-05-05 15:39 | 49.09940 | -123.22335 | 699 ft | 126 kts | 172° |
| 2026-05-05 15:39 | 49.09059 | -123.22225 | 705 ft | 127 kts | 176° |
| 2026-05-05 15:39 | 49.08175 | -123.22212 | 703 ft | 128 kts | 180° |
| 2026-05-05 15:39 | 49.07254 | -123.22263 | 684 ft | 142 kts | 180° |
| 2026-05-05 15:40 | 49.06244 | -123.22374 | 722 ft | 142 kts | 185° |
| 2026-05-05 15:40 | 49.05262 | -123.22551 | 698 ft | 143 kts | 185° |
| 2026-05-05 15:40 | 49.04275 | -123.22756 | 713 ft | 140 kts | 185° |
| 2026-05-05 15:40 | 49.03306 | -123.22976 | 696 ft | 145 kts | 186° |
| 2026-05-05 15:41 | 49.02316 | -123.23221 | 696 ft | 144 kts | 187° |
| 2026-05-05 15:41 | 49.01336 | -123.23470 | 701 ft | 140 kts | 189° |
| 2026-05-05 15:41 | 49.00369 | -123.23713 | 703 ft | 140 kts | 188° |
| 2026-05-05 15:41 | 48.99404 | -123.23969 | 697 ft | 141 kts | 189° |
| 2026-05-05 15:42 | 48.98442 | -123.24237 | 692 ft | 140 kts | 189° |
| 2026-05-05 15:42 | 48.97479 | -123.24503 | 694 ft | 141 kts | 189° |
| 2026-05-05 15:42 | 48.96516 | -123.24767 | 695 ft | 141 kts | 189° |
| 2026-05-05 15:42 | 48.95550 | -123.25032 | 698 ft | 139 kts | 191° |
| 2026-05-05 15:43 | 48.94602 | -123.25291 | 700 ft | 139 kts | 191° |
| 2026-05-05 15:43 | 48.93649 | -123.25550 | 689 ft | 140 kts | 191° |
| 2026-05-05 15:43 | 48.92696 | -123.25812 | 693 ft | 139 kts | 190° |
| 2026-05-05 15:43 | 48.91738 | -123.26074 | 692 ft | 141 kts | 191° |
| 2026-05-05 15:44 | 48.90779 | -123.26336 | 686 ft | 140 kts | 191° |
| 2026-05-05 15:44 | 48.89820 | -123.26597 | 680 ft | 141 kts | 191° |
| 2026-05-05 15:44 | 48.88867 | -123.26858 | 684 ft | 139 kts | 190° |
| 2026-05-05 15:44 | 48.87913 | -123.27119 | 657 ft | 138 kts | 191° |
| 2026-05-05 15:45 | 48.86968 | -123.27388 | 575 ft | 139 kts | 191° |
| 2026-05-05 15:45 | 48.86017 | -123.27656 | 526 ft | 139 kts | 190° |
| 2026-05-05 15:45 | 48.85058 | -123.27909 | 510 ft | 140 kts | 186° |
| 2026-05-05 15:45 | 48.84155 | -123.27519 | 476 ft | 135 kts | 148° |
| 2026-05-05 15:46 | 48.83269 | -123.26984 | 370 ft | 138 kts | 174° |
| 2026-05-05 15:46 | 48.82460 | -123.27367 | 716 ft | 121 kts | 219° |
| 2026-05-05 15:46 | 48.82023 | -123.28597 | 614 ft | 138 kts | 245° |
| 2026-05-05 15:46 | 48.81463 | -123.29682 | 684 ft | 129 kts | 219° |
| 2026-05-05 15:47 | 48.80698 | -123.30381 | 712 ft | 129 kts | 204° |
| 2026-05-05 15:47 | 48.80114 | -123.30657 | 676 ft | 133 kts | 193° |
| 2026-05-05 15:47 | 48.78887 | -123.30712 | 675 ft | 130 kts | 174° |
| 2026-05-05 15:47 | 48.77995 | -123.30582 | 663 ft | 132 kts | 178° |
| 2026-05-05 15:48 | 48.77001 | -123.30580 | 670 ft | 149 kts | 182° |
| 2026-05-05 15:48 | 48.75990 | -123.30682 | 671 ft | 146 kts | 187° |
| 2026-05-05 15:48 | 48.74969 | -123.30844 | 683 ft | 146 kts | 187° |
| 2026-05-05 15:48 | 48.73962 | -123.31044 | 673 ft | 148 kts | 188° |
| 2026-05-05 15:49 | 48.72955 | -123.31267 | 674 ft | 146 kts | 189° |
| 2026-05-05 15:49 | 48.71947 | -123.31509 | 677 ft | 146 kts | 189° |
| 2026-05-05 15:49 | 48.71285 | -123.31676 | 673 ft | 147 kts | 189° |
| 2026-05-05 15:49 | 48.70272 | -123.31929 | 681 ft | 147 kts | 191° |
| 2026-05-05 15:50 | 48.69258 | -123.32186 | 675 ft | 148 kts | 190° |
| 2026-05-05 15:50 | 48.68245 | -123.32458 | 682 ft | 145 kts | 191° |
| 2026-05-05 15:50 | 48.67245 | -123.32733 | 675 ft | 149 kts | 190° |
| 2026-05-05 15:50 | 48.66232 | -123.33008 | 675 ft | 148 kts | 190° |
| 2026-05-05 15:51 | 48.65209 | -123.33283 | 678 ft | 148 kts | 191° |
| 2026-05-05 15:51 | 48.64205 | -123.33554 | 674 ft | 148 kts | 191° |
| 2026-05-05 15:51 | 48.63195 | -123.33830 | 675 ft | 147 kts | 191° |
| 2026-05-05 15:51 | 48.62184 | -123.34101 | 673 ft | 149 kts | 190° |
| 2026-05-05 15:52 | 48.61169 | -123.34376 | 677 ft | 148 kts | 191° |
| 2026-05-05 15:52 | 48.60152 | -123.34650 | 684 ft | 147 kts | 191° |
| 2026-05-05 15:52 | 48.59146 | -123.34921 | 673 ft | 149 kts | 191° |
| 2026-05-05 15:52 | 48.58131 | -123.35194 | 676 ft | 147 kts | 191° |
| 2026-05-05 15:53 | 48.57116 | -123.35467 | 675 ft | 148 kts | 191° |
| 2026-05-05 15:53 | 48.56110 | -123.35738 | 671 ft | 150 kts | 191° |
| 2026-05-05 15:53 | 48.55076 | -123.36017 | 675 ft | 151 kts | 192° |
| 2026-05-05 15:53 | 48.54049 | -123.36293 | 676 ft | 150 kts | 192° |
| 2026-05-05 15:54 | 48.53029 | -123.36569 | 678 ft | 148 kts | 192° |
| 2026-05-05 15:54 | 48.52006 | -123.36843 | 672 ft | 150 kts | 191° |
| 2026-05-05 15:54 | 48.50998 | -123.37115 | 682 ft | 148 kts | 192° |
| 2026-05-05 15:54 | 48.49990 | -123.37386 | 686 ft | 145 kts | 192° |
| 2026-05-05 15:55 | 48.49001 | -123.37650 | 682 ft | 147 kts | 192° |
| 2026-05-05 15:55 | 48.48009 | -123.37919 | 671 ft | 145 kts | 192° |
| 2026-05-05 15:55 | 48.47013 | -123.38212 | 593 ft | 146 kts | 194° |
| 2026-05-05 15:55 | 48.46016 | -123.38548 | 466 ft | 144 kts | 196° |
| 2026-05-05 15:56 | 48.45187 | -123.38838 | 496 ft | 105 kts | 189° |
| 2026-05-05 15:56 | 48.44531 | -123.38870 | 479 ft | 88 kts | 179° |
| 2026-05-05 15:56 | 48.43963 | -123.38788 | 437 ft | 76 kts | 181° |
| 2026-05-05 15:56 | 48.43505 | -123.38730 | 385 ft | 54 kts | 181° |
| 2026-05-05 15:57 | 48.43232 | -123.38697 | 262 ft | 23 kts | 189° |
| 2026-05-05 15:57 | 48.43057 | -123.38689 | 290 ft | 37 kts | 196° |
| 2026-05-05 15:57 | 48.42760 | -123.38693 | 216 ft | 41 kts | 188° |
| 2026-05-05 15:57 | 48.42556 | -123.38706 | 135 ft | 23 kts | 198° |
| 2026-05-05 15:58 | 48.42456 | -123.38715 | 67 ft | 7 kts | 201° |
| 2026-05-05 15:58 | 48.42405 | -123.38730 | 61 ft | 13 kts | 201° |
| 2026-05-05 15:58 | 48.42366 | -123.38735 | 31 ft | 3 kts | 202° |
| 2026-05-05 15:58 | 48.42350 | -123.38739 | 29 ft | 2 kts | 203° |
| 2026-05-05 15:59 | 48.42344 | -123.38739 | 27 ft | 3 kts | 203° |
| 2026-05-05 15:59 | 48.42323 | -123.38747 | 19 ft | 0 kts | 204° |
| 2026-05-05 16:10 | 48.42314 | -123.38755 | 31 ft | 5 kts | 205° |
| 2026-05-05 16:10 | 48.42210 | -123.39130 | 123 ft | 68 kts | 252° |
| 2026-05-05 16:11 | 48.42515 | -123.39826 | 327 ft | 98 kts | 330° |
| 2026-05-05 16:11 | 48.44680 | -123.41331 | 543 ft | 134 kts | 310° |
| 2026-05-05 16:12 | 48.45180 | -123.42543 | 564 ft | 135 kts | 295° |
| 2026-05-05 16:12 | 48.45555 | -123.44541 | 619 ft | 107 kts | 186° |
| 2026-05-05 16:13 | 48.44497 | -123.42077 | 658 ft | 85 kts | 119° |
| 2026-05-05 16:13 | 48.44290 | -123.41469 | 668 ft | 47 kts | 132° |
| 2026-05-05 16:13 | 48.44118 | -123.41129 | 490 ft | 31 kts | 147° |
| 2026-05-05 16:14 | 48.43466 | -123.40460 | 390 ft | 83 kts | 160° |
| 2026-05-05 16:14 | 48.42665 | -123.39255 | 388 ft | 97 kts | 117° |
| 2026-05-05 16:15 | 48.42486 | -123.37439 | 402 ft | 70 kts | 62° |
| 2026-05-05 16:15 | 48.42816 | -123.36527 | 398 ft | 17 kts | 187° |
| 2026-05-05 16:16 | 48.42859 | -123.36645 | 390 ft | 1 kts | 188° |
| 2026-05-05 16:16 | 48.42860 | -123.36642 | 391 ft | 0 kts | 188° |
| 2026-05-05 16:17 | 48.42859 | -123.36642 | 391 ft | 0 kts | 188° |
| 2026-05-05 16:18 | 48.42840 | -123.36642 | 127 ft | 14 kts | 181° |
| 2026-05-05 16:18 | 48.42748 | -123.36782 | 173 ft | 11 kts | 125° |
| 2026-05-05 16:19 | 48.42940 | -123.36706 | 477 ft | 66 kts | 307° |
| 2026-05-05 16:19 | 48.43031 | -123.36867 | 474 ft | 6 kts | 303° |
| 2026-05-05 16:19 | 48.43038 | -123.36887 | 483 ft | 0 kts | 303° |
| 2026-05-05 16:20 | 48.43055 | -123.37087 | 432 ft | 39 kts | 295° |
| 2026-05-05 16:20 | 48.42816 | -123.37003 | 414 ft | 20 kts | 352° |
| 2026-05-05 16:21 | 48.42883 | -123.36666 | 177 ft | 12 kts | 178° |
| 2026-05-05 16:22 | 48.42793 | -123.36496 | 222 ft | 16 kts | 130° |
| 2026-05-05 16:22 | 48.42789 | -123.36482 | 210 ft | 0 kts | 23° |
| 2026-05-05 16:23 | 48.42855 | -123.36473 | 117 ft | 19 kts | 340° |
| 2026-05-05 16:23 | 48.42977 | -123.36496 | 251 ft | 46 kts | 34° |
| 2026-05-05 16:23 | 48.43546 | -123.36497 | 194 ft | 54 kts | 45° |
| 2026-05-05 16:24 | 48.43862 | -123.36908 | 253 ft | 48 kts | 184° |
| 2026-05-05 16:24 | 48.43965 | -123.37122 | 218 ft | 8 kts | 215° |
| 2026-05-05 16:24 | 48.43960 | -123.36989 | 209 ft | 9 kts | 169° |
| 2026-05-05 16:25 | 48.43790 | -123.36888 | 227 ft | 37 kts | 159° |
| 2026-05-05 16:25 | 48.43173 | -123.36581 | 278 ft | 54 kts | 200° |
| 2026-05-05 16:25 | 48.42856 | -123.36791 | 332 ft | 38 kts | 180° |
| 2026-05-05 16:26 | 48.43144 | -123.36390 | 143 ft | 10 kts | 318° |
| 2026-05-05 16:26 | 48.43119 | -123.36436 | 111 ft | 7 kts | 318° |
| 2026-05-05 16:27 | 48.43003 | -123.36662 | 314 ft | 44 kts | 216° |
| 2026-05-05 16:27 | 48.42718 | -123.36656 | 287 ft | 47 kts | 88° |
| 2026-05-05 16:27 | 48.43029 | -123.36443 | 254 ft | 46 kts | 3° |
| 2026-05-05 16:27 | 48.43331 | -123.36467 | 151 ft | 41 kts | 5° |
| 2026-05-05 16:28 | 48.43522 | -123.36527 | 88 ft | 12 kts | 188° |
| 2026-05-05 16:28 | 48.43572 | -123.36594 | 290 ft | 19 kts | 203° |
| 2026-05-05 16:28 | 48.43511 | -123.36484 | 261 ft | 60 kts | 302° |
| 2026-05-05 16:28 | 48.43942 | -123.36720 | 195 ft | 73 kts | 335° |
| 2026-05-05 16:29 | 48.44344 | -123.36967 | 93 ft | 42 kts | 338° |
| 2026-05-05 16:29 | 48.44380 | -123.37009 | 46 ft | 4 kts | 294° |
| 2026-05-05 16:29 | 48.44397 | -123.37016 | 83 ft | 9 kts | 353° |
| 2026-05-05 16:30 | 48.44519 | -123.37091 | 116 ft | 33 kts | 1° |
| 2026-05-05 16:30 | 48.44813 | -123.37277 | 171 ft | 59 kts | 344° |
| 2026-05-05 16:30 | 48.45228 | -123.37494 | 196 ft | 64 kts | 333° |
| 2026-05-05 16:30 | 48.45641 | -123.37706 | 264 ft | 62 kts | 341° |
| 2026-05-05 16:31 | 48.46125 | -123.37895 | 220 ft | 77 kts | 336° |
| 2026-05-05 16:31 | 48.46065 | -123.38242 | 279 ft | 56 kts | 243° |
| 2026-05-05 16:31 | 48.45718 | -123.38213 | 271 ft | 85 kts | 126° |
| 2026-05-05 16:31 | 48.45347 | -123.37650 | 221 ft | 69 kts | 159° |
| 2026-05-05 16:32 | 48.44991 | -123.37398 | 175 ft | 43 kts | 168° |
| 2026-05-05 16:32 | 48.44745 | -123.37243 | 214 ft | 52 kts | 163° |
| 2026-05-05 16:32 | 48.44398 | -123.37031 | 159 ft | 50 kts | 164° |
| 2026-05-05 16:32 | 48.44097 | -123.36866 | 168 ft | 45 kts | 158° |
| 2026-05-05 16:33 | 48.43816 | -123.36688 | 158 ft | 43 kts | 165° |
| 2026-05-05 16:33 | 48.43510 | -123.36513 | 125 ft | 47 kts | 166° |
| 2026-05-05 16:33 | 48.43242 | -123.36465 | 114 ft | 29 kts | 180° |
| 2026-05-05 16:33 | 48.43083 | -123.36452 | 142 ft | 28 kts | 184° |
| 2026-05-05 16:34 | 48.42943 | -123.36571 | 176 ft | 27 kts | 219° |
| 2026-05-05 16:34 | 48.42814 | -123.36504 | 208 ft | 17 kts | 1° |
| 2026-05-05 16:34 | 48.43077 | -123.36447 | 99 ft | 55 kts | 6° |
| 2026-05-05 16:34 | 48.43342 | -123.36468 | 65 ft | 12 kts | 7° |
| 2026-05-05 16:35 | 48.43477 | -123.36499 | 114 ft | 34 kts | 7° |
| 2026-05-05 16:35 | 48.43787 | -123.36662 | 121 ft | 60 kts | 336° |
| 2026-05-05 16:35 | 48.44150 | -123.36862 | 106 ft | 38 kts | 344° |
| 2026-05-05 16:35 | 48.44331 | -123.36972 | 90 ft | 19 kts | 346° |
| 2026-05-05 16:36 | 48.44442 | -123.37034 | 105 ft | 18 kts | 346° |
| 2026-05-05 16:36 | 48.44583 | -123.37106 | 106 ft | 49 kts | 346° |
| 2026-05-05 16:36 | 48.44936 | -123.37321 | 107 ft | 54 kts | 339° |
| 2026-05-05 16:36 | 48.45248 | -123.37521 | 128 ft | 35 kts | 335° |
| 2026-05-05 16:37 | 48.45370 | -123.37607 | 174 ft | 32 kts | 346° |
| 2026-05-05 16:37 | 48.45667 | -123.37766 | 248 ft | 58 kts | 345° |
| 2026-05-05 16:37 | 48.46139 | -123.37928 | 164 ft | 77 kts | 347° |
| 2026-05-05 16:37 | 48.46574 | -123.38078 | 140 ft | 48 kts | 350° |
| 2026-05-05 16:38 | 48.46839 | -123.38167 | 198 ft | 40 kts | 1° |
| 2026-05-05 16:38 | 48.47136 | -123.38261 | 160 ft | 38 kts | 354° |
| 2026-05-05 16:38 | 48.47425 | -123.38363 | 175 ft | 50 kts | 350° |
| 2026-05-05 16:38 | 48.47794 | -123.38529 | 182 ft | 63 kts | 346° |
| 2026-05-05 16:39 | 48.48280 | -123.38669 | 179 ft | 73 kts | 16° |
| 2026-05-05 16:39 | 48.48748 | -123.38592 | 197 ft | 53 kts | 345° |
| 2026-05-05 16:39 | 48.49012 | -123.38589 | 164 ft | 37 kts | 11° |
| 2026-05-05 16:39 | 48.49323 | -123.38642 | 180 ft | 45 kts | 27° |
| 2026-05-05 16:40 | 48.49436 | -123.38633 | 336 ft | 18 kts | 29° |
| 2026-05-05 16:40 | 48.49694 | -123.38581 | 272 ft | 43 kts | 19° |
| 2026-05-05 16:40 | 48.50057 | -123.38513 | 237 ft | 66 kts | 2° |
| 2026-05-05 16:40 | 48.50458 | -123.38494 | 309 ft | 49 kts | 17° |
| 2026-05-05 16:41 | 48.50795 | -123.38434 | 377 ft | 59 kts | 12° |
| 2026-05-05 16:41 | 48.51304 | -123.38414 | 376 ft | 87 kts | 356° |
| 2026-05-05 16:41 | 48.51961 | -123.38585 | 354 ft | 99 kts | 351° |
| 2026-05-05 16:41 | 48.52644 | -123.38656 | 374 ft | 102 kts | 360° |
| 2026-05-05 16:42 | 48.53357 | -123.38844 | 347 ft | 105 kts | 356° |
| 2026-05-05 16:42 | 48.54064 | -123.38951 | 422 ft | 90 kts | 4° |
| 2026-05-05 16:42 | 48.54749 | -123.39145 | 298 ft | 107 kts | 356° |
| 2026-05-05 16:42 | 48.55466 | -123.39291 | 320 ft | 103 kts | 355° |
| 2026-05-05 16:43 | 48.56184 | -123.39566 | 198 ft | 109 kts | 340° |
| 2026-05-05 16:43 | 48.56806 | -123.39881 | 395 ft | 92 kts | 356° |
| 2026-05-05 16:43 | 48.57447 | -123.39811 | 437 ft | 94 kts | 25° |
| 2026-05-05 16:43 | 48.57386 | -123.39389 | 246 ft | 69 kts | 165° |
| 2026-05-05 16:44 | 48.56777 | -123.38789 | 204 ft | 121 kts | 147° |
| 2026-05-05 16:44 | 48.55911 | -123.38253 | 167 ft | 148 kts | 171° |
| 2026-05-05 16:44 | 48.54870 | -123.38149 | 321 ft | 142 kts | 175° |
| 2026-05-05 16:44 | 48.53839 | -123.37902 | 284 ft | 155 kts | 170° |
| 2026-05-05 16:45 | 48.52856 | -123.37631 | 591 ft | 143 kts | 172° |
| 2026-05-05 16:45 | 48.51868 | -123.38013 | 586 ft | 150 kts | 207° |
| 2026-05-05 16:45 | 48.50820 | -123.38424 | 369 ft | 158 kts | 189° |
| 2026-05-05 16:45 | 48.49732 | -123.38542 | 218 ft | 160 kts | 198° |
| 2026-05-05 16:46 | 48.48674 | -123.38501 | 190 ft | 146 kts | 182° |
| 2026-05-05 16:46 | 48.47706 | -123.38499 | 108 ft | 143 kts | 166° |
| 2026-05-05 16:46 | 48.46810 | -123.38185 | 259 ft | 129 kts | 171° |
| 2026-05-05 16:46 | 48.45999 | -123.37843 | 300 ft | 111 kts | 157° |
| 2026-05-05 16:47 | 48.45313 | -123.37365 | 194 ft | 109 kts | 177° |
| 2026-05-05 16:47 | 48.44645 | -123.37175 | 154 ft | 97 kts | 166° |
| 2026-05-05 16:47 | 48.44203 | -123.37238 | 207 ft | 31 kts | 114° |
| 2026-05-05 16:47 | 48.44461 | -123.37102 | 145 ft | 69 kts | 347° |
| 2026-05-05 16:48 | 48.44997 | -123.37369 | 160 ft | 97 kts | 340° |
| 2026-05-05 16:48 | 48.45556 | -123.37905 | 156 ft | 95 kts | 292° |
| 2026-05-05 16:48 | 48.45787 | -123.38875 | 119 ft | 102 kts | 287° |
| 2026-05-05 16:48 | 48.45856 | -123.39906 | 106 ft | 101 kts | 277° |
| 2026-05-05 16:49 | 48.46081 | -123.40855 | 185 ft | 97 kts | 301° |
| 2026-05-05 16:49 | 48.46418 | -123.41781 | 89 ft | 108 kts | 268° |
| 2026-05-05 16:49 | 48.46412 | -123.42429 | 50 ft | 76 kts | 263° |
| 2026-05-05 16:49 | 48.46374 | -123.43264 | 92 ft | 84 kts | 257° |
| 2026-05-05 16:50 | 48.46280 | -123.44136 | 165 ft | 83 kts | 261° |
| 2026-05-05 16:50 | 48.46192 | -123.45087 | 140 ft | 92 kts | 260° |
| 2026-05-05 16:50 | 48.46189 | -123.46026 | 201 ft | 89 kts | 270° |
| 2026-05-05 16:50 | 48.46154 | -123.46946 | 218 ft | 93 kts | 282° |
| 2026-05-05 16:51 | 48.46497 | -123.47744 | 296 ft | 88 kts | 285° |
| 2026-05-05 16:51 | 48.46293 | -123.48511 | 320 ft | 85 kts | 223° |
| 2026-05-05 16:51 | 48.45897 | -123.49127 | 397 ft | 85 kts | 227° |
| 2026-05-05 16:51 | 48.45654 | -123.49990 | 365 ft | 94 kts | 245° |
| 2026-05-05 16:52 | 48.45355 | -123.50869 | 389 ft | 96 kts | 245° |
| 2026-05-05 16:52 | 48.45490 | -123.51869 | 407 ft | 93 kts | 292° |
| 2026-05-05 16:52 | 48.45436 | -123.52667 | 507 ft | 67 kts | 243° |
| 2026-05-05 16:52 | 48.45611 | -123.53460 | 375 ft | 99 kts | 310° |
| 2026-05-05 16:53 | 48.46021 | -123.54274 | 352 ft | 94 kts | 301° |
| 2026-05-05 16:53 | 48.46302 | -123.55086 | 416 ft | 95 kts | 312° |
| 2026-05-05 16:53 | 48.46830 | -123.55199 | 567 ft | 68 kts | 352° |
| 2026-05-05 16:53 | 48.47332 | -123.54957 | 513 ft | 86 kts | 360° |
| 2026-05-05 16:54 | 48.47937 | -123.54875 | 568 ft | 93 kts | 7° |
| 2026-05-05 16:54 | 48.48612 | -123.55219 | 291 ft | 112 kts | 339° |
| 2026-05-05 16:54 | 48.49319 | -123.55457 | 408 ft | 91 kts | 1° |
| 2026-05-05 16:54 | 48.49890 | -123.55290 | 620 ft | 74 kts | 10° |
| 2026-05-05 16:55 | 48.50335 | -123.55173 | 803 ft | 59 kts | 4° |
| 2026-05-05 16:55 | 48.50709 | -123.55418 | 697 ft | 88 kts | 324° |
| 2026-05-05 16:55 | 48.51372 | -123.55584 | 633 ft | 93 kts | 8° |
| 2026-05-05 16:55 | 48.52019 | -123.55498 | 681 ft | 94 kts | 0° |
| 2026-05-05 16:56 | 48.52637 | -123.55695 | 726 ft | 91 kts | 320° |
| 2026-05-05 16:56 | 48.53193 | -123.55997 | 847 ft | 85 kts | 13° |
| 2026-05-05 16:56 | 48.53815 | -123.56113 | 815 ft | 92 kts | 342° |
| 2026-05-05 16:56 | 48.54365 | -123.56476 | 789 ft | 76 kts | 15° |
| 2026-05-05 16:57 | 48.54789 | -123.56598 | 926 ft | 66 kts | 330° |
| 2026-05-05 16:57 | 48.55235 | -123.56987 | 959 ft | 78 kts | 333° |
| 2026-05-05 16:57 | 48.55752 | -123.57123 | 1077 ft | 74 kts | 14° |
| 2026-05-05 16:57 | 48.56193 | -123.56764 | 1233 ft | 67 kts | 51° |
| 2026-05-05 16:58 | 48.56555 | -123.56241 | 1293 ft | 83 kts | 46° |
| 2026-05-05 16:58 | 48.56799 | -123.55478 | 1247 ft | 92 kts | 82° |
| 2026-05-05 16:58 | 48.56718 | -123.54606 | 1227 ft | 96 kts | 87° |
| 2026-05-05 16:58 | 48.56949 | -123.53600 | 1143 ft | 109 kts | 75° |
| 2026-05-05 16:59 | 48.57343 | -123.52663 | 1062 ft | 104 kts | 10° |
| 2026-05-05 16:59 | 48.57979 | -123.52954 | 1118 ft | 95 kts | 333° |
| 2026-05-05 16:59 | 48.58609 | -123.53000 | 1094 ft | 90 kts | 341° |
| 2026-05-05 16:59 | 48.59309 | -123.53239 | 803 ft | 113 kts | 331° |
| 2026-05-05 17:00 | 48.60060 | -123.53443 | 672 ft | 115 kts | 342° |
| 2026-05-05 17:00 | 48.60843 | -123.53734 | 540 ft | 119 kts | 349° |
| 2026-05-05 17:00 | 48.61602 | -123.54176 | 543 ft | 110 kts | 338° |
| 2026-05-05 17:00 | 48.62307 | -123.54537 | 582 ft | 106 kts | 354° |
| 2026-05-05 17:01 | 48.63035 | -123.54511 | 617 ft | 104 kts | 15° |
| 2026-05-05 17:01 | 48.63717 | -123.54208 | 647 ft | 96 kts | 339° |
| 2026-05-05 17:01 | 48.64044 | -123.55086 | 393 ft | 117 kts | 305° |
| 2026-05-05 17:01 | 48.64662 | -123.55760 | 355 ft | 110 kts | 334° |
| 2026-05-05 17:02 | 48.65399 | -123.56039 | 300 ft | 102 kts | 360° |
| 2026-05-05 17:02 | 48.66112 | -123.55943 | 270 ft | 104 kts | 16° |
| 2026-05-05 17:02 | 48.66825 | -123.55985 | 314 ft | 103 kts | 353° |
| 2026-05-05 17:02 | 48.67493 | -123.56354 | 329 ft | 104 kts | 335° |
| 2026-05-05 17:03 | 48.68032 | -123.57045 | 371 ft | 102 kts | 317° |
| 2026-05-05 17:03 | 48.68563 | -123.57754 | 395 ft | 102 kts | 319° |
| 2026-05-05 17:03 | 48.69076 | -123.58460 | 482 ft | 98 kts | 319° |
| 2026-05-05 17:03 | 48.69550 | -123.59179 | 579 ft | 95 kts | 316° |
| 2026-05-05 17:04 | 48.70102 | -123.59833 | 462 ft | 113 kts | 327° |
| 2026-05-05 17:04 | 48.70712 | -123.60710 | 375 ft | 128 kts | 327° |
| 2026-05-05 17:04 | 48.71561 | -123.61104 | 416 ft | 128 kts | 329° |
| 2026-05-05 17:04 | 48.71932 | -123.62355 | 374 ft | 132 kts | 285° |
| 2026-05-05 17:05 | 48.72337 | -123.63501 | 369 ft | 121 kts | 332° |
| 2026-05-05 17:05 | 48.73095 | -123.64192 | 289 ft | 135 kts | 322° |
| 2026-05-05 17:05 | 48.73794 | -123.65147 | 274 ft | 138 kts | 319° |
| 2026-05-05 17:05 | 48.74476 | -123.66212 | 219 ft | 143 kts | 314° |
| 2026-05-05 17:06 | 48.75182 | -123.67226 | 301 ft | 130 kts | 340° |
| 2026-05-05 17:06 | 48.75841 | -123.68167 | 97 ft | 139 kts | 304° |
| 2026-05-05 17:06 | 48.76409 | -123.69347 | 102 ft | 138 kts | 308° |
| 2026-05-05 17:06 | 48.77184 | -123.69872 | 110 ft | 132 kts | 360° |
| 2026-05-05 17:07 | 48.78108 | -123.69894 | 138 ft | 128 kts | 354° |
| 2026-05-05 17:07 | 48.78753 | -123.70749 | 178 ft | 128 kts | 312° |
| 2026-05-05 17:07 | 48.79407 | -123.71556 | 473 ft | 102 kts | 317° |
| 2026-05-05 17:07 | 48.79717 | -123.72594 | 538 ft | 121 kts | 290° |
| 2026-05-05 17:08 | 48.79992 | -123.73919 | 399 ft | 140 kts | 288° |
| 2026-05-05 17:08 | 48.80235 | -123.75247 | 678 ft | 119 kts | 281° |
| 2026-05-05 17:08 | 48.79882 | -123.76439 | 467 ft | 138 kts | 247° |
| 2026-05-05 17:08 | 48.79875 | -123.77855 | 487 ft | 133 kts | 274° |
| 2026-05-05 17:09 | 48.79947 | -123.79183 | 710 ft | 121 kts | 271° |
| 2026-05-05 17:09 | 48.79797 | -123.80491 | 535 ft | 117 kts | 285° |
| 2026-05-05 17:09 | 48.79679 | -123.81614 | 515 ft | 108 kts | 252° |
| 2026-05-05 17:09 | 48.79452 | -123.82673 | 583 ft | 100 kts | 256° |
| 2026-05-05 17:10 | 48.79641 | -123.83524 | 653 ft | 86 kts | 277° |
| 2026-05-05 17:10 | 48.79670 | -123.84451 | 700 ft | 89 kts | 279° |
| 2026-05-05 17:10 | 48.79848 | -123.85338 | 807 ft | 82 kts | 284° |
| 2026-05-05 17:10 | 48.79965 | -123.86200 | 880 ft | 83 kts | 271° |
| 2026-05-05 17:11 | 48.79853 | -123.87064 | 952 ft | 84 kts | 262° |
| 2026-05-05 17:11 | 48.79744 | -123.87932 | 1030 ft | 85 kts | 253° |
| 2026-05-05 17:11 | 48.79678 | -123.88830 | 1045 ft | 91 kts | 278° |
| 2026-05-05 17:11 | 48.79678 | -123.89829 | 1028 ft | 98 kts | 270° |
| 2026-05-05 17:12 | 48.79832 | -123.90870 | 948 ft | 109 kts | 283° |
| 2026-05-05 17:12 | 48.80000 | -123.91960 | 898 ft | 107 kts | 308° |
| 2026-05-05 17:12 | 48.80232 | -123.92991 | 862 ft | 107 kts | 282° |
| 2026-05-05 17:12 | 48.80369 | -123.94097 | 864 ft | 103 kts | 288° |
| 2026-05-05 17:13 | 48.80591 | -123.95154 | 815 ft | 108 kts | 287° |
| 2026-05-05 17:13 | 48.80852 | -123.96222 | 783 ft | 108 kts | 304° |
| 2026-05-05 17:13 | 48.81246 | -123.97105 | 824 ft | 102 kts | 298° |
| 2026-05-05 17:13 | 48.81560 | -123.98073 | 840 ft | 99 kts | 313° |
| 2026-05-05 17:14 | 48.81979 | -123.98907 | 859 ft | 96 kts | 310° |
| 2026-05-05 17:14 | 48.82328 | -123.99774 | 860 ft | 102 kts | 305° |
| 2026-05-05 17:14 | 48.82663 | -124.00721 | 854 ft | 103 kts | 300° |
| 2026-05-05 17:14 | 48.83018 | -124.01640 | 910 ft | 100 kts | 300° |
| 2026-05-05 17:15 | 48.83245 | -124.02654 | 895 ft | 104 kts | 291° |
| 2026-05-05 17:15 | 48.83350 | -124.03755 | 834 ft | 109 kts | 271° |
| 2026-05-05 17:15 | 48.83379 | -124.04913 | 810 ft | 109 kts | 273° |
| 2026-05-05 17:15 | 48.83150 | -124.05922 | 828 ft | 107 kts | 234° |
| 2026-05-05 17:16 | 48.82794 | -124.06788 | 909 ft | 99 kts | 260° |
| 2026-05-05 17:16 | 48.83058 | -124.07722 | 842 ft | 103 kts | 301° |
| 2026-05-05 17:16 | 48.83372 | -124.08711 | 804 ft | 107 kts | 301° |
| 2026-05-05 17:16 | 48.83793 | -124.09664 | 745 ft | 109 kts | 323° |
| 2026-05-05 17:17 | 48.84379 | -124.10412 | 711 ft | 110 kts | 320° |
| 2026-05-05 17:17 | 48.84948 | -124.11148 | 704 ft | 93 kts | 320° |
| 2026-05-05 17:17 | 48.85237 | -124.11753 | 959 ft | 44 kts | 297° |
| 2026-05-05 17:17 | 48.85356 | -124.12010 | 830 ft | 35 kts | 314° |
| 2026-05-05 17:18 | 48.85366 | -124.12319 | 834 ft | 11 kts | 314° |
| 2026-05-05 17:18 | 48.85386 | -124.12216 | 841 ft | 16 kts | 314° |
| 2026-05-05 17:18 | 48.85432 | -124.12199 | 838 ft | 18 kts | 313° |
| 2026-05-05 17:18 | 48.85469 | -124.12278 | 831 ft | 30 kts | 303° |
| 2026-05-05 17:19 | 48.85633 | -124.12774 | 856 ft | 52 kts | 296° |
| 2026-05-05 17:19 | 48.85786 | -124.13205 | 846 ft | 41 kts | 296° |
| 2026-05-05 17:19 | 48.85876 | -124.13520 | 840 ft | 17 kts | 194° |
| 2026-05-05 17:19 | 48.85817 | -124.13513 | 838 ft | 17 kts | 198° |
| 2026-05-05 17:20 | 48.85839 | -124.13409 | 834 ft | 12 kts | 199° |
| 2026-05-05 17:20 | 48.85632 | -124.13497 | 855 ft | 48 kts | 216° |
| 2026-05-05 17:20 | 48.85441 | -124.13582 | 832 ft | 13 kts | 15° |
| 2026-05-05 17:20 | 48.85420 | -124.13478 | 833 ft | 6 kts | 14° |
| 2026-05-05 17:21 | 48.85420 | -124.13467 | 835 ft | 0 kts | 15° |
| 2026-05-05 17:21 | 48.85420 | -124.13468 | 837 ft | 0 kts | 15° |
| 2026-05-05 17:21 | 48.85421 | -124.13469 | 838 ft | 0 kts | 15° |
| 2026-05-05 17:22 | 48.85421 | -124.13468 | 837 ft | 0 kts | 15° |
| 2026-05-05 17:22 | 48.85421 | -124.13467 | 839 ft | 0 kts | 15° |
| 2026-05-05 17:23 | 48.85421 | -124.13468 | 840 ft | 0 kts | 15° |
| 2026-05-05 17:23 | 48.85418 | -124.13470 | 792 ft | 1 kts | 14° |
| 2026-05-05 17:23 | 48.85419 | -124.13468 | 726 ft | 0 kts | 2° |
| 2026-05-05 17:23 | 48.85421 | -124.13496 | 650 ft | 18 kts | 82° |
| 2026-05-05 17:24 | 48.85496 | -124.13554 | 671 ft | 1 kts | 65° |
| 2026-05-05 17:24 | 48.85494 | -124.13555 | 670 ft | 0 kts | 66° |
| 2026-05-05 17:24 | 48.85493 | -124.13557 | 669 ft | 0 kts | 349° |
| 2026-05-05 17:24 | 48.85494 | -124.13556 | 670 ft | 0 kts | 342° |
| 2026-05-05 17:25 | 48.85501 | -124.13560 | 658 ft | 9 kts | 342° |
| 2026-05-05 17:25 | 48.85534 | -124.13578 | 660 ft | 19 kts | 343° |
| 2026-05-05 17:25 | 48.85730 | -124.13469 | 844 ft | 24 kts | 291° |
| 2026-05-05 17:25 | 48.85648 | -124.13674 | 794 ft | 54 kts | 272° |
| 2026-05-05 17:26 | 48.85659 | -124.13769 | 799 ft | 15 kts | 350° |
| 2026-05-05 17:26 | 48.85647 | -124.13873 | 605 ft | 19 kts | 18° |
| 2026-05-05 17:26 | 48.85686 | -124.13826 | 676 ft | 11 kts | 34° |
| 2026-05-05 17:26 | 48.85682 | -124.13824 | 603 ft | 8 kts | 35° |
| 2026-05-05 17:27 | 48.85744 | -124.13769 | 587 ft | 7 kts | 33° |
| 2026-05-05 17:27 | 48.85721 | -124.13776 | 677 ft | 22 kts | 37° |
| 2026-05-05 17:27 | 48.85744 | -124.13795 | 660 ft | 14 kts | 51° |
| 2026-05-05 17:27 | 48.85771 | -124.13820 | 630 ft | 31 kts | 187° |
| 2026-05-05 17:28 | 48.85668 | -124.13802 | 600 ft | 47 kts | 16° |
| 2026-05-05 17:28 | 48.85650 | -124.13566 | 548 ft | 30 kts | 98° |
| 2026-05-05 17:28 | 48.85453 | -124.13546 | 829 ft | 17 kts | 342° |
| 2026-05-05 17:28 | 48.85540 | -124.13700 | 859 ft | 61 kts | 297° |
| 2026-05-05 17:29 | 48.85643 | -124.14094 | 996 ft | 10 kts | 34° |
| 2026-05-05 17:29 | 48.85697 | -124.13859 | 683 ft | 21 kts | 42° |
| 2026-05-05 17:29 | 48.85643 | -124.13926 | 608 ft | 8 kts | 69° |
| 2026-05-05 17:29 | 48.85705 | -124.13882 | 644 ft | 19 kts | 70° |
| 2026-05-05 17:30 | 48.85748 | -124.13810 | 625 ft | 17 kts | 68° |
| 2026-05-05 17:30 | 48.85778 | -124.13796 | 655 ft | 8 kts | 352° |
| 2026-05-05 17:30 | 48.85699 | -124.13970 | 599 ft | 57 kts | 253° |
| 2026-05-05 17:30 | 48.85568 | -124.13953 | 575 ft | 54 kts | 16° |
| 2026-05-05 17:31 | 48.85636 | -124.14162 | 703 ft | 20 kts | 87° |
| 2026-05-05 17:31 | 48.85597 | -124.14127 | 693 ft | 29 kts | 53° |
| 2026-05-05 17:31 | 48.85691 | -124.13870 | 652 ft | 19 kts | 53° |
| 2026-05-05 17:31 | 48.85747 | -124.13765 | 635 ft | 8 kts | 52° |
| 2026-05-05 17:32 | 48.85779 | -124.13768 | 657 ft | 15 kts | 101° |
| 2026-05-05 17:32 | 48.85669 | -124.13760 | 707 ft | 14 kts | 352° |
| 2026-05-05 17:32 | 48.85787 | -124.13736 | 724 ft | 8 kts | 220° |
| 2026-05-05 17:32 | 48.85683 | -124.14013 | 917 ft | 22 kts | 65° |
| 2026-05-05 17:33 | 48.85682 | -124.13808 | 809 ft | 16 kts | 54° |
| 2026-05-05 17:33 | 48.85738 | -124.13766 | 614 ft | 20 kts | 19° |
| 2026-05-05 17:33 | 48.85769 | -124.13743 | 586 ft | 0 kts | 265° |
| 2026-05-05 17:34 | 48.85747 | -124.13809 | 649 ft | 13 kts | 264° |
| 2026-05-05 17:34 | 48.85642 | -124.14201 | 713 ft | 55 kts | 168° |
| 2026-05-05 17:34 | 48.85776 | -124.14223 | 802 ft | 28 kts | 326° |
| 2026-05-05 17:35 | 48.85689 | -124.14001 | 801 ft | 25 kts | 131° |
| 2026-05-05 17:35 | 48.85801 | -124.14291 | 703 ft | 71 kts | 279° |
| 2026-05-05 17:35 | 48.85870 | -124.14582 | 704 ft | 37 kts | 124° |
| 2026-05-05 17:35 | 48.85701 | -124.14281 | 707 ft | 51 kts | 153° |
| 2026-05-05 17:36 | 48.85523 | -124.13998 | 768 ft | 37 kts | 44° |
| 2026-05-05 17:36 | 48.85697 | -124.13780 | 595 ft | 19 kts | 42° |
| 2026-05-05 17:36 | 48.85736 | -124.13771 | 760 ft | 3 kts | 31° |
| 2026-05-05 17:36 | 48.85748 | -124.13758 | 614 ft | 6 kts | 31° |
| 2026-05-05 17:37 | 48.85762 | -124.13752 | 585 ft | 1 kts | 50° |